Terminal Aerodrome Forecast
Issued by NWS

Home | Current Version | Previous Version | Text Only | Print | Product List | Glossary On
Versions: 1 2 3 4 5 6 7 8 9 10 11 12 13 14 15
000
FTUS44 KLIX 302245 AAA
TAFMCB
TAF AMD
KMCB 302245Z 3023/3118 22004KT P6SM VCTS SCT035CB
      TEMPO 3023/3024 VRB20G35KT 1SM TSRA BKN025CB
     FM310100 00000KT P6SM BKN200
     FM310900 00000KT 3SM BR BKN200
     FM311400 00000KT P6SM SCT025=

USA.gov is the U.S. government's official web portal to all federal, state and local government web resources and services.